Time;durP1;ratioP1;P1;durP2;ratioP2;P2;SDS_P1;SDS_P2;PMS_P1;PMS_P2;Temp;Humidity;BMP_temperature;BMP_pressure;BME280_temperature;BME280_humidity;BME280_pressure;Samples;Min_cycle;Max_cycle;Signal;HPM_P1;HPM_P2
2022/08/09 00:00:28;;;;;;;6.65;2.00;;;20.50;90.30;;;;;;5011492;28;20041;-73
2022/08/09 00:02:54;;;;;;;3.20;1.60;;;20.50;90.30;;;;;;5012074;28;20464;-72
2022/08/09 00:05:21;;;;;;;3.42;1.45;;;20.50;90.50;;;;;;5012019;28;20033;-73
2022/08/09 00:07:46;;;;;;;8.27;1.80;;;20.50;90.60;;;;;;5012517;28;20018;-73
2022/08/09 00:10:12;;;;;;;4.18;1.65;;;20.50;90.40;;;;;;5012531;28;20041;-72
2022/08/09 00:12:38;;;;;;;5.10;2.47;;;20.50;90.40;;;;;;5011753;28;20371;-72
2022/08/09 00:15:04;;;;;;;4.65;2.03;;;20.40;90.50;;;;;;5011830;28;20038;-72
2022/08/09 00:17:30;;;;;;;4.05;1.63;;;20.40;90.40;;;;;;5011859;28;20343;-73
2022/08/09 00:19:55;;;;;;;3.20;1.67;;;20.40;90.60;;;;;;5012182;28;20112;-72
2022/08/09 00:22:21;;;;;;;5.72;2.00;;;20.40;90.70;;;;;;5011896;28;20030;-73
2022/08/09 00:24:47;;;;;;;5.07;1.60;;;20.30;90.80;;;;;;5011831;28;20472;-74
2022/08/09 00:27:12;;;;;;;4.97;1.80;;;20.30;90.90;;;;;;5012023;28;20030;-73
2022/08/09 00:29:38;;;;;;;3.95;1.60;;;20.30;90.90;;;;;;5011644;28;20026;-71
2022/08/09 00:32:04;;;;;;;8.00;2.67;;;20.30;90.90;;;;;;5011974;28;20018;-70
2022/08/09 00:34:29;;;;;;;5.28;2.28;;;20.20;91.00;;;;;;5012543;28;20030;-73
2022/08/09 00:36:55;;;;;;;4.68;1.70;;;20.20;91.00;;;;;;5011718;28;20041;-72
2022/08/09 00:39:21;;;;;;;4.22;1.50;;;20.30;91.10;;;;;;5011673;28;20495;-72
2022/08/09 00:41:48;;;;;;;3.30;1.58;;;20.20;91.20;;;;;;5007265;28;20057;-72
2022/08/09 00:44:14;;;;;;;5.43;1.52;;;20.10;91.30;;;;;;4992160;28;20267;-73
2022/08/09 00:46:42;;;;;;;5.78;1.67;;;20.20;91.30;;;;;;5011763;28;20045;-72
2022/08/09 00:49:08;;;;;;;7.97;2.38;;;20.10;91.40;;;;;;5011432;28;20030;-73
2022/08/09 00:51:34;;;;;;;4.55;1.38;;;20.10;91.50;;;;;;5011313;28;20037;-73
2022/08/09 00:54:00;;;;;;;4.03;1.90;;;20.10;91.60;;;;;;5011186;28;20173;-74
2022/08/09 00:56:26;;;;;;;1.92;1.23;;;20.00;91.90;;;;;;5010989;28;20103;-73
2022/08/09 00:58:52;;;;;;;3.95;1.58;;;20.00;91.70;;;;;;5011655;28;20041;-73
2022/08/09 01:01:25;;;;;;;5.85;1.50;;;19.90;92.10;;;;;;5011039;28;20026;-72
2022/08/09 01:03:58;;;;;;;5.90;1.52;;;19.90;92.30;;;;;;5011294;28;20045;-73
2022/08/09 01:06:47;;;;;;;8.40;1.73;;;19.90;92.20;;;;;;5011016;28;20041;-72
2022/08/09 01:09:36;;;;;;;4.43;1.75;;;19.90;92.40;;;;;;5011195;28;20061;-73
2022/08/09 01:12:31;;;;;;;4.28;1.48;;;19.80;92.40;;;;;;5010275;28;20084;-72
2022/08/09 01:15:12;;;;;;;3.42;1.70;;;19.80;92.40;;;;;;5010884;28;20057;-74
2022/08/09 01:17:42;;;;;;;7.05;1.50;;;19.60;92.90;;;;;;5010941;28;20037;-75
2022/08/09 01:20:31;;;;;;;5.10;1.52;;;19.70;93.00;;;;;;5011029;28;20376;-74
2022/08/09 01:23:17;;;;;;;4.25;1.63;;;19.70;92.70;;;;;;5011166;28;20172;-73
2022/08/09 01:26:15;;;;;;;3.45;1.38;;;19.70;92.90;;;;;;5010005;28;20041;-74
2022/08/09 01:28:46;;;;;;;6.28;1.52;;;19.60;92.90;;;;;;5010917;28;20057;-74
2022/08/09 01:31:18;;;;;;;7.82;1.98;;;19.70;92.90;;;;;;5010761;28;20026;-74
2022/08/09 01:33:46;;;;;;;3.83;1.58;;;19.60;92.90;;;;;;5011143;28;20380;-75
2022/08/09 01:36:19;;;;;;;2.70;1.75;;;19.70;93.20;;;;;;5021714;28;20057;-74
2022/08/09 01:38:47;;;;;;;2.20;1.50;;;19.60;93.30;;;;;;5030564;28;20260;-75
2022/08/09 01:41:24;;;;;;;4.90;2.03;;;19.60;93.10;;;;;;5029674;28;20087;-73
2022/08/09 01:44:03;;;;;;;6.07;1.87;;;19.60;93.20;;;;;;5030964;28;20523;-73
2022/08/09 01:46:37;;;;;;;3.10;1.75;;;19.50;93.30;;;;;;5030572;28;20046;-73
2022/08/09 01:49:15;;;;;;;6.03;2.13;;;19.50;93.20;;;;;;5029309;28;20022;-73
2022/08/09 01:52:03;;;;;;;5.30;2.08;;;19.50;93.30;;;;;;5030485;28;20167;-74
2022/08/09 01:54:42;;;;;;;4.65;1.85;;;19.50;93.40;;;;;;5030182;28;20514;-73
2022/08/09 01:57:15;;;;;;;2.38;1.70;;;19.40;93.40;;;;;;5030348;28;20141;-74
2022/08/09 01:59:44;;;;;;;6.05;1.80;;;19.40;93.50;;;;;;5030332;28;20041;-73
2022/08/09 02:02:12;;;;;;;4.28;2.05;;;19.30;93.60;;;;;;5029124;28;20120;-73
2022/08/09 02:04:38;;;;;;;;;;;19.30;93.80;;;;;;5031251;28;20017;-73
2022/08/09 02:07:08;;;;;;;2.10;1.35;;;19.30;93.70;;;;;;5029283;28;19909;-73
2022/08/09 02:09:41;;;;;;;2.65;1.50;;;19.30;94.10;;;;;;5030308;28;20429;-74
2022/08/09 02:12:09;;;;;;;6.32;2.08;;;19.30;93.80;;;;;;5030380;28;20117;-72
2022/08/09 02:14:37;;;;;;;4.47;2.05;;;19.30;93.80;;;;;;5030664;28;20042;-73
2022/08/09 02:17:05;;;;;;;3.08;1.58;;;19.10;94.10;;;;;;5030701;28;20139;-73
2022/08/09 02:19:31;;;;;;;7.03;2.00;;;19.10;94.10;;;;;;5021464;28;20124;-73
2022/08/09 02:22:03;;;;;;;3.03;1.90;;;19.10;94.20;;;;;;5029839;28;20036;-73
2022/08/09 02:24:35;;;;;;;5.40;1.70;;;19.10;94.20;;;;;;5031549;28;20030;-73
2022/08/09 02:27:06;;;;;;;6.70;2.03;;;19.10;94.30;;;;;;5033587;28;20109;-75
2022/08/09 02:29:37;;;;;;;4.53;2.00;;;19.00;94.30;;;;;;5032455;28;20144;-75
2022/08/09 02:32:06;;;;;;;4.70;2.08;;;19.00;94.40;;;;;;5034332;28;20017;-75
2022/08/09 02:34:34;;;;;;;4.63;1.90;;;18.90;94.60;;;;;;5033810;28;20133;-75
2022/08/09 02:37:03;;;;;;;5.85;2.42;;;18.90;94.60;;;;;;5033321;28;20026;-75
2022/08/09 02:39:34;;;;;;;3.53;2.05;;;18.80;94.70;;;;;;5033383;28;20053;-73
2022/08/09 02:42:05;;;;;;;4.05;1.80;;;18.80;94.80;;;;;;5033294;28;20063;-73
2022/08/09 02:44:35;;;;;;;8.07;1.92;;;18.90;94.90;;;;;;5033319;28;20041;-71
2022/08/09 02:47:05;;;;;;;6.68;1.92;;;18.80;94.90;;;;;;5033822;28;20030;-73
2022/08/09 02:49:40;;;;;;;3.75;2.40;;;18.80;95.00;;;;;;5033737;28;20057;-74
2022/08/09 02:52:10;;;;;;;3.95;2.38;;;18.80;95.10;;;;;;5033001;28;20272;-72
2022/08/09 02:54:38;;;;;;;4.78;2.22;;;18.70;95.20;;;;;;5032607;28;20083;-74
2022/08/09 02:57:07;;;;;;;4.30;2.22;;;18.70;95.10;;;;;;5032669;28;20041;-73
2022/08/09 02:59:35;;;;;;;7.32;2.42;;;18.80;95.10;;;;;;5032766;28;20041;-73
2022/08/09 03:02:06;;;;;;;3.38;2.13;;;18.80;95.00;;;;;;5032924;28;20069;-73
2022/08/09 03:04:35;;;;;;;3.53;2.40;;;18.80;95.10;;;;;;5032524;28;20040;-74
2022/08/09 03:07:03;;;;;;;1.98;1.77;;;18.80;95.00;;;;;;5031377;28;20038;-73
2022/08/09 03:09:29;;;;;;;3.65;2.05;;;18.60;95.20;;;;;;5031439;28;20451;-72
2022/08/09 03:11:58;;;;;;;3.92;2.00;;;18.60;95.30;;;;;;5032562;28;20080;-73
2022/08/09 03:14:24;;;;;;;7.85;2.22;;;18.70;95.20;;;;;;5032329;28;20036;-74
2022/08/09 03:16:51;;;;;;;2.75;1.77;;;18.50;95.40;;;;;;5033187;28;20143;-73
2022/08/09 03:19:18;;;;;;;2.58;1.40;;;18.60;95.20;;;;;;5032393;28;20116;-73
2022/08/09 03:21:49;;;;;;;2.70;1.80;;;18.50;95.40;;;;;;5032232;28;20541;-73
2022/08/09 03:24:15;;;;;;;9.68;2.67;;;18.50;95.40;;;;;;5032551;28;20420;-72
2022/08/09 03:26:42;;;;;;;5.65;2.15;;;18.40;95.40;;;;;;5032198;28;20377;-72
2022/08/09 03:29:09;;;;;;;5.68;2.40;;;18.40;95.60;;;;;;5032218;28;20040;-72
2022/08/09 03:31:36;;;;;;;3.80;1.65;;;18.30;95.60;;;;;;5032659;28;20037;-73
2022/08/09 03:34:03;;;;;;;2.55;1.63;;;18.30;95.50;;;;;;5032348;28;20068;-72
2022/08/09 03:36:29;;;;;;;4.32;1.70;;;18.30;95.70;;;;;;5031103;28;20033;-72
2022/08/09 03:38:55;;;;;;;39.90;7.00;;;18.20;95.80;;;;;;5032091;28;20051;-72
2022/08/09 03:41:21;;;;;;;9.90;2.45;;;18.20;95.80;;;;;;5031814;28;20041;-72
2022/08/09 03:43:47;;;;;;;5.82;2.38;;;18.20;95.90;;;;;;5032493;28;20025;-71
2022/08/09 03:46:16;;;;;;;3.17;1.75;;;18.20;95.80;;;;;;5031950;28;20040;-72
2022/08/09 03:48:44;;;;;;;4.80;1.90;;;18.20;95.90;;;;;;5031929;28;20470;-73
2022/08/09 03:51:13;;;;;;;2.83;1.90;;;18.10;96.00;;;;;;5033967;28;20064;-73
2022/08/09 03:53:40;;;;;;;5.80;2.42;;;18.10;96.00;;;;;;5031683;28;20436;-73
2022/08/09 03:56:16;;;;;;;7.60;1.95;;;18.10;95.90;;;;;;5031499;28;20124;-72
2022/08/09 03:58:43;;;;;;;7.22;2.05;;;18.00;96.00;;;;;;5032375;28;20444;-72
2022/08/09 04:01:15;;;;;;;9.35;2.20;;;18.00;96.10;;;;;;5031533;28;20045;-72
2022/08/09 04:03:41;;;;;;;4.90;2.30;;;17.90;96.10;;;;;;5031681;28;20490;-73
2022/08/09 04:06:17;;;;;;;5.32;2.47;;;17.90;96.60;;;;;;5032435;28;20105;-73
2022/08/09 04:08:42;;;;;;;4.90;2.00;;;18.00;96.30;;;;;;5035453;28;20117;-73
2022/08/09 04:11:14;;;;;;;4.45;2.20;;;18.00;96.30;;;;;;5036706;28;20073;-71
2022/08/09 04:13:40;;;;;;;7.03;2.58;;;18.00;96.10;;;;;;5036147;28;20396;-73
2022/08/09 04:16:15;;;;;;;11.93;3.22;;;18.00;96.30;;;;;;5042592;28;20164;-72
2022/08/09 04:18:41;;;;;;;6.38;2.75;;;18.00;96.10;;;;;;5039178;28;20460;-74
2022/08/09 04:21:15;;;;;;;14.73;3.72;;;18.10;96.20;;;;;;5040616;28;20029;-73
2022/08/09 04:23:41;;;;;;;8.25;2.88;;;18.10;96.20;;;;;;5036379;28;20087;-72
2022/08/09 04:26:13;;;;;;;7.55;3.22;;;18.00;96.30;;;;;;5031925;28;20360;-72
2022/08/09 04:28:39;;;;;;;4.78;2.20;;;18.00;96.30;;;;;;5032124;28;20029;-73
2022/08/09 04:31:20;;;;;;;7.07;2.63;;;18.10;96.30;;;;;;5031054;28;20037;-72
2022/08/09 04:33:46;;;;;;;7.00;2.42;;;18.10;96.40;;;;;;5031450;28;20111;-72
2022/08/09 04:36:17;;;;;;;13.27;2.80;;;18.10;96.30;;;;;;5031173;28;20041;-72
2022/08/09 04:38:43;;;;;;;5.40;2.70;;;18.10;96.40;;;;;;5031093;28;20041;-74
2022/08/09 04:41:15;;;;;;;7.78;3.08;;;18.10;96.30;;;;;;5031104;28;20029;-73
2022/08/09 04:43:41;;;;;;;7.53;3.28;;;18.10;96.20;;;;;;5031413;28;20029;-72
2022/08/09 04:46:19;;;;;;;5.78;3.03;;;18.10;96.20;;;;;;5030976;28;20125;-74
2022/08/09 04:48:44;;;;;;;;;;;18.10;96.30;;;;;;5031379;28;20116;-73
2022/08/09 04:51:16;;;;;;;4.50;2.88;;;18.10;96.30;;;;;;5030910;28;19992;-73
2022/08/09 04:53:42;;;;;;;6.53;3.30;;;18.10;96.30;;;;;;5030542;28;20030;-74
2022/08/09 04:56:19;;;;;;;8.85;3.00;;;18.10;96.30;;;;;;5030453;28;20033;-72
2022/08/09 04:58:45;;;;;;;8.13;3.13;;;18.10;96.30;;;;;;5031203;28;20471;-73
2022/08/09 05:01:17;;;;;;;7.57;3.88;;;18.10;96.30;;;;;;5030657;28;20335;-72
2022/08/09 05:03:43;;;;;;;11.23;3.47;;;18.10;96.30;;;;;;5030865;28;20344;-75
2022/08/09 05:06:14;;;;;;;5.78;2.63;;;18.10;96.40;;;;;;5029660;28;20036;-75
2022/08/09 05:08:40;;;;;;;10.23;3.35;;;18.10;96.20;;;;;;5030905;28;20036;-71
2022/08/09 05:11:15;;;;;;;9.55;4.05;;;18.10;96.60;;;;;;5030710;28;20339;-76
2022/08/09 05:13:41;;;;;;;6.97;2.92;;;18.10;96.40;;;;;;5031104;28;20481;-76
2022/08/09 05:16:16;;;;;;;8.02;3.20;;;18.00;96.50;;;;;;5030700;28;20032;-74
2022/08/09 05:18:42;;;;;;;7.18;2.92;;;18.10;96.60;;;;;;5030159;28;20379;-74
2022/08/09 05:21:17;;;;;;;10.55;2.85;;;18.10;96.40;;;;;;5030660;28;20087;-75
2022/08/09 05:23:42;;;;;;;24.77;5.20;;;18.10;96.50;;;;;;5030870;28;20113;-74
2022/08/09 05:26:17;;;;;;;19.30;4.22;;;18.10;96.30;;;;;;5030807;28;20172;-76
2022/08/09 05:28:43;;;;;;;14.10;3.28;;;18.10;96.40;;;;;;5031351;28;20120;-76
2022/08/09 05:31:17;;;;;;;7.50;3.13;;;18.10;96.40;;;;;;5030723;28;20026;-76
2022/08/09 05:33:43;;;;;;;4.55;3.15;;;18.10;96.40;;;;;;5030448;28;20033;-76
2022/08/09 05:36:15;;;;;;;6.47;2.88;;;18.20;96.30;;;;;;5031208;28;20452;-74
2022/08/09 05:38:40;;;;;;;4.53;2.83;;;18.20;96.30;;;;;;5030563;28;20048;-77
2022/08/09 05:41:09;;;;;;;9.88;3.15;;;18.20;96.20;;;;;;5029198;28;20021;-75
2022/08/09 05:43:35;;;;;;;7.57;3.20;;;18.20;96.20;;;;;;5030959;28;20417;-76
2022/08/09 05:46:02;;;;;;;7.53;2.70;;;18.20;96.10;;;;;;5030467;28;20224;-74
2022/08/09 05:48:28;;;;;;;11.82;3.38;;;18.30;96.20;;;;;;5029481;28;20026;-78
2022/08/09 05:50:54;;;;;;;20.02;13.18;;;18.30;96.00;;;;;;5029670;28;20036;-77
2022/08/09 05:53:20;;;;;;;8.93;6.20;;;18.30;96.00;;;;;;5030336;28;20032;-75
2022/08/09 05:55:46;;;;;;;8.30;2.95;;;18.40;96.00;;;;;;5029670;28;20133;-75
2022/08/09 05:58:11;;;;;;;5.38;2.67;;;18.40;95.80;;;;;;5030608;28;20093;-75
2022/08/09 06:00:37;;;;;;;10.02;3.00;;;18.40;95.90;;;;;;5034342;28;20034;-74
2022/08/09 06:03:03;;;;;;;52.95;33.10;;;18.50;95.80;;;;;;5034668;28;20033;-81
2022/08/09 06:05:32;;;;;;;63.42;35.67;;;18.60;95.60;;;;;;5034719;28;20064;-75
2022/08/09 06:07:58;;;;;;;220.57;117.40;;;18.60;95.60;;;;;;5033667;28;20486;-75
2022/08/09 06:10:36;;;;;;;25.38;13.07;;;18.70;95.50;;;;;;5034292;28;20050;-76
2022/08/09 06:13:11;;;;;;;6.18;3.15;;;18.70;95.50;;;;;;5034207;28;20025;-76
2022/08/09 06:15:38;;;;;;;4.38;2.60;;;18.80;95.50;;;;;;5034315;28;20089;-75
2022/08/09 06:18:04;;;;;;;6.18;2.95;;;18.80;95.30;;;;;;5033906;28;20136;-78
2022/08/09 06:20:31;;;;;;;6.10;2.70;;;18.80;95.20;;;;;;5034106;28;20031;-77
2022/08/09 06:22:57;;;;;;;6.80;2.45;;;18.90;95.00;;;;;;5034530;28;20021;-75
2022/08/09 06:25:23;;;;;;;6.53;2.38;;;19.00;94.90;;;;;;5033710;28;20084;-75
2022/08/09 06:27:48;;;;;;;8.43;2.67;;;19.00;94.90;;;;;;5034001;28;20044;-76
2022/08/09 06:30:15;;;;;;;8.68;2.42;;;19.10;94.60;;;;;;5033955;28;20030;-78
2022/08/09 06:32:41;;;;;;;162.40;86.30;;;19.10;94.60;;;;;;5033709;28;20117;-76
2022/08/09 06:35:08;;;;;;;122.80;73.57;;;19.20;94.50;;;;;;5033574;28;20465;-77
2022/08/09 06:37:34;;;;;;;271.80;156.35;;;19.30;94.50;;;;;;5033996;28;20032;-78
2022/08/09 06:40:00;;;;;;;34.70;18.40;;;19.40;94.40;;;;;;5033426;28;20038;-75
2022/08/09 06:42:26;;;;;;;11.45;3.38;;;19.40;94.40;;;;;;5034028;28;20076;-77
2022/08/09 06:44:51;;;;;;;3.40;1.75;;;19.50;94.20;;;;;;5032233;28;20372;-75
2022/08/09 06:47:17;;;;;;;7.03;2.60;;;19.50;94.10;;;;;;5033378;28;20044;-74
2022/08/09 06:49:43;;;;;;;7.68;2.40;;;19.60;94.20;;;;;;5034032;28;20030;-75
2022/08/09 06:52:09;;;;;;;7.15;2.85;;;19.60;93.70;;;;;;5033323;28;20025;-79
2022/08/09 06:54:35;;;;;;;241.98;133.63;;;19.70;93.70;;;;;;5033365;28;20026;-79
2022/08/09 06:57:00;;;;;;;566.47;356.67;;;19.80;93.80;;;;;;5032928;28;20068;-77
2022/08/09 06:59:26;;;;;;;142.48;82.80;;;19.90;93.50;;;;;;5033083;28;20599;-76
2022/08/09 07:01:52;;;;;;;23.13;10.18;;;19.90;93.50;;;;;;5033999;28;20021;-77
2022/08/09 07:04:18;;;;;;;7.00;3.30;;;20.00;93.40;;;;;;5033711;28;20049;-76
2022/08/09 07:06:43;;;;;;;7.70;2.20;;;20.10;93.10;;;;;;5033501;28;20408;-75
2022/08/09 07:09:11;;;;;;;6.10;1.50;;;20.20;93.00;;;;;;5033745;28;20115;-76
2022/08/09 07:11:37;;;;;;;8.93;1.83;;;20.20;92.60;;;;;;5031991;28;20446;-76
2022/08/09 07:14:02;;;;;;;6.43;1.83;;;20.30;92.00;;;;;;5033166;28;20029;-76
2022/08/09 07:16:28;;;;;;;6.95;1.60;;;20.30;92.00;;;;;;5032777;28;20363;-84
2022/08/09 07:18:54;;;;;;;6.10;1.83;;;20.40;92.00;;;;;;5032663;28;20047;-76
2022/08/09 07:21:20;;;;;;;6.55;1.50;;;20.50;91.90;;;;;;5032726;28;20034;-77
2022/08/09 07:23:46;;;;;;;3.63;1.50;;;20.60;91.60;;;;;;5031664;28;20459;-77
2022/08/09 07:26:11;;;;;;;7.85;2.03;;;20.70;91.20;;;;;;5032896;28;20033;-76
2022/08/09 07:28:37;;;;;;;3.22;1.30;;;20.80;91.10;;;;;;5033448;28;20079;-75
2022/08/09 07:31:12;;;;;;;5.93;1.65;;;20.80;90.80;;;;;;5032501;28;20375;-75
2022/08/09 07:33:38;;;;;;;3.60;1.58;;;21.00;90.80;;;;;;5033040;28;20116;-77
2022/08/09 07:36:08;;;;;;;7.80;2.55;;;21.00;90.50;;;;;;5032809;28;20445;-76
2022/08/09 07:38:34;;;;;;;4.70;1.70;;;21.10;90.30;;;;;;5032561;28;20076;-77
2022/08/09 07:40:59;;;;;;;3.92;1.40;;;21.30;90.40;;;;;;5032102;28;20056;-78
2022/08/09 07:43:25;;;;;;;5.65;1.83;;;21.30;90.00;;;;;;5031427;28;20029;-78
2022/08/09 07:45:51;;;;;;;5.03;1.35;;;21.40;89.90;;;;;;5032466;28;20026;-77
2022/08/09 07:48:16;;;;;;;5.13;1.77;;;21.50;89.50;;;;;;5032185;28;20473;-77
2022/08/09 07:50:42;;;;;;;2.25;1.25;;;21.60;89.50;;;;;;5032790;28;20538;-78
2022/08/09 07:53:08;;;;;;;6.78;3.15;;;21.70;88.20;;;;;;5032732;28;20014;-78
2022/08/09 07:55:35;;;;;;;6.68;1.95;;;21.80;87.50;;;;;;5032577;28;20072;-78
2022/08/09 07:58:01;;;;;;;4.97;1.00;;;21.90;87.10;;;;;;5031195;28;20113;-81
2022/08/09 08:00:28;;;;;;;6.50;3.90;;;22.00;87.00;;;;;;5032167;28;20182;-79
2022/08/09 08:02:55;;;;;;;12.20;4.00;;;22.00;85.40;;;;;;5031293;28;20088;-77
2022/08/09 08:05:21;;;;;;;3.47;1.50;;;22.10;86.30;;;;;;5032245;28;20455;-76
2022/08/09 08:07:47;;;;;;;6.53;1.52;;;22.30;85.90;;;;;;5032748;28;20022;-77
2022/08/09 08:10:12;;;;;;;5.22;0.93;;;22.40;84.80;;;;;;5031136;28;20411;-78
2022/08/09 08:12:42;;;;;;;2.25;1.27;;;22.50;85.00;;;;;;5031088;28;20048;-80
2022/08/09 08:15:08;;;;;;;6.55;1.15;;;22.70;84.30;;;;;;5031855;28;20056;-83
2022/08/09 08:17:35;;;;;;;5.15;1.20;;;22.90;83.30;;;;;;5034070;28;20448;-77
2022/08/09 08:20:01;;;;;;;10.98;1.85;;;23.20;83.20;;;;;;5032274;28;20112;-76
2022/08/09 08:22:27;;;;;;;3.78;1.67;;;23.40;82.20;;;;;;5031238;28;20029;-74
2022/08/09 08:24:55;;;;;;;2.60;1.13;;;23.60;82.60;;;;;;5031959;28;20032;-78
2022/08/09 08:27:22;;;;;;;5.88;2.22;;;24.00;80.70;;;;;;5032003;28;20122;-78
2022/08/09 08:29:48;;;;;;;3.13;1.25;;;24.80;84.20;;;;;;5032126;28;20368;-81
2022/08/09 08:32:14;;;;;;;3.03;1.10;;;25.70;79.20;;;;;;5031748;28;20079;-81
2022/08/09 08:34:40;;;;;;;8.52;1.30;;;26.70;74.70;;;;;;5031945;28;20037;-79
2022/08/09 08:37:05;;;;;;;4.13;1.25;;;27.70;71.00;;;;;;5030426;28;20038;-79
2022/08/09 08:39:31;;;;;;;3.38;1.77;;;28.60;72.50;;;;;;5031046;28;20029;-78
2022/08/09 08:41:58;;;;;;;5.75;1.35;;;29.50;65.50;;;;;;5031052;28;20036;-77
2022/08/09 08:44:26;;;;;;;6.35;1.40;;;30.10;63.10;;;;;;5030862;28;20029;-76
2022/08/09 08:46:54;;;;;;;6.85;2.00;;;30.90;62.00;;;;;;5031701;28;20404;-76
2022/08/09 08:49:21;;;;;;;20.60;14.77;;;31.70;59.20;;;;;;5031611;28;20108;-78
2022/08/09 08:51:47;;;;;;;134.93;94.03;;;32.10;58.20;;;;;;5030207;28;20402;-79
2022/08/09 08:54:13;;;;;;;170.48;117.72;;;32.10;55.30;;;;;;5030232;28;20049;-78
2022/08/09 08:56:39;;;;;;;10.95;5.65;;;32.90;55.50;;;;;;5030790;28;20133;-76
2022/08/09 08:59:07;;;;;;;6.35;1.05;;;33.10;53.20;;;;;;5030080;28;20575;-77
2022/08/09 09:01:50;;;;;;;5.20;1.45;;;33.40;53.60;;;;;;5109186;27;20822;-78
2022/08/09 09:04:18;;;;;;;9.15;1.70;;;34.10;50.90;;;;;;5071303;27;20132;-78
2022/08/09 09:06:44;;;;;;;;;;;34.50;50.50;;;;;;5081371;28;20093;-77
2022/08/09 09:09:13;;;;;;;8.80;1.77;;;34.80;47.70;;;;;;5078290;28;19956;-79
2022/08/09 09:11:41;;;;;;;2.90;1.20;;;35.20;47.70;;;;;;5068601;28;20028;-78
2022/08/09 09:14:15;;;;;;;10.45;2.45;;;35.20;48.40;;;;;;5068272;28;20103;-80
2022/08/09 09:16:41;;;;;;;6.07;1.33;;;35.20;45.40;;;;;;5068390;28;20090;-77
2022/08/09 09:19:10;;;;;;;5.05;1.48;;;35.20;46.90;;;;;;5068353;28;20025;-81
2022/08/09 09:21:54;;;;;;;4.35;1.50;;;35.50;45.10;;;;;;5067805;28;20241;-80
2022/08/09 09:24:27;;;;;;;6.07;1.77;;;35.90;44.30;;;;;;5067863;28;20087;-82
2022/08/09 09:26:58;;;;;;;6.10;3.40;;;36.40;43.80;;;;;;5067468;28;20032;-80
2022/08/09 09:29:36;;;;;;;7.03;4.00;;;36.10;42.70;;;;;;5067931;28;20103;-78
2022/08/09 09:32:03;;;;;;;3.17;1.48;;;36.30;43.80;;;;;;5068195;28;20390;-81
2022/08/09 09:34:34;;;;;;;5.40;1.60;;;36.30;43.50;;;;;;5068159;28;20071;-87
2022/08/09 09:37:02;;;;;;;8.90;2.25;;;37.20;43.20;;;;;;5068925;28;20041;-78
2022/08/09 09:39:29;;;;;;;5.47;2.25;;;37.40;41.90;;;;;;5065098;28;20060;-81
2022/08/09 09:41:56;;;;;;;4.63;1.50;;;35.20;42.70;;;;;;5047945;28;20036;-80
2022/08/09 09:44:32;;;;;;;5.15;1.80;;;35.20;43.20;;;;;;5046427;28;20021;-81
2022/08/09 09:47:08;;;;;;;4.53;1.80;;;35.70;43.90;;;;;;5048208;28;20489;-81
2022/08/09 09:49:36;;;;;;;5.25;1.60;;;36.60;42.70;;;;;;5047791;28;20095;-81
2022/08/09 09:52:03;;;;;;;;;;;36.80;41.10;;;;;;5081122;28;20083;-84
2022/08/09 09:54:38;;;;;;;1.58;1.30;;;36.50;41.60;;;;;;5067479;28;20028;-85
2022/08/09 09:57:19;;;;;;;4.50;1.67;;;36.70;41.10;;;;;;5068655;28;20423;-86
2022/08/09 09:59:46;;;;;;;4.55;1.40;;;36.00;41.80;;;;;;5067127;28;20057;-86
2022/08/09 10:02:13;;;;;;;;;;;36.40;40.70;;;;;;5069009;28;20021;-88
2022/08/09 10:04:41;;;;;;;5.50;2.17;;;36.70;40.50;;;;;;5049541;28;19897;-79
2022/08/09 10:07:26;;;;;;;4.57;1.52;;;36.40;40.30;;;;;;5048387;28;20110;-88
2022/08/09 10:09:54;;;;;;;2.28;1.35;;;36.20;40.80;;;;;;5048773;28;20025;-85
2022/08/09 10:12:39;;;;;;;13.27;3.25;;;35.70;40.60;;;;;;5040283;28;20045;-83
2022/08/09 10:15:14;;;;;;;2.28;1.50;;;34.50;43.00;;;;;;5035101;28;20030;-85
2022/08/09 10:17:41;;;;;;;2.40;1.30;;;34.10;42.30;;;;;;5035613;28;20041;-84
2022/08/09 10:20:16;;;;;;;;;;;33.90;43.20;;;;;;5036111;28;20117;-81
2022/08/09 10:22:42;;;;;;;4.10;1.40;;;33.90;43.00;;;;;;5066909;28;20204;-83
2022/08/09 10:25:08;;;;;;;5.35;1.70;;;33.80;42.80;;;;;;5035137;28;20022;-85
2022/08/09 10:27:35;;;;;;;4.47;2.00;;;33.40;43.40;;;;;;5037597;28;20467;-82
2022/08/09 10:30:03;;;;;;;1.67;1.35;;;32.90;44.00;;;;;;5046798;28;20045;-85
2022/08/09 10:32:29;;;;;;;2.33;1.30;;;32.10;44.40;;;;;;5044109;28;20447;-84
2022/08/09 10:34:56;;;;;;;3.50;1.70;;;32.40;44.70;;;;;;5038902;28;20043;-83
2022/08/09 10:37:22;;;;;;;2.15;1.77;;;32.40;44.70;;;;;;5037221;28;20030;-83
2022/08/09 10:39:49;;;;;;;5.30;1.93;;;32.10;45.30;;;;;;5035642;28;20099;-82
2022/08/09 10:42:15;;;;;;;6.93;2.30;;;32.00;45.50;;;;;;5034724;28;20259;-87
2022/08/09 10:44:59;;;;;;;3.22;2.20;;;32.00;45.60;;;;;;5037035;28;20189;-85
2022/08/09 10:47:44;;;;;;;2.20;1.30;;;31.80;45.70;;;;;;5035814;28;20041;-84
2022/08/09 10:51:05;;;;;;;4.50;1.80;;;31.80;45.40;;;;;;5035380;28;20669;-84
2022/08/09 10:53:27;;;;;;;6.88;2.00;;;31.80;45.70;;;;;;5045580;28;20115;-81
2022/08/09 10:56:29;;;;;;;8.27;5.82;;;31.70;45.70;;;;;;5046943;28;20045;-82
2022/08/09 10:59:00;;;;;;;5.15;3.22;;;31.70;45.60;;;;;;5063662;28;20041;-84
2022/08/09 11:01:38;;;;;;;7.20;1.90;;;31.50;46.00;;;;;;5065830;28;20053;-83
2022/08/09 11:04:22;;;;;;;3.90;2.00;;;31.30;45.50;;;;;;5065801;28;20029;-83
2022/08/09 11:06:58;;;;;;;6.55;2.40;;;31.20;46.20;;;;;;5058549;28;20459;-85
2022/08/09 11:09:50;;;;;;;3.97;1.55;;;30.90;46.00;;;;;;5054969;28;20037;-86
2022/08/09 11:12:18;;;;;;;2.63;1.58;;;30.60;47.30;;;;;;5053485;28;20364;-86
2022/08/09 11:14:53;;;;;;;3.58;1.67;;;30.60;47.20;;;;;;5053995;28;20029;-87
2022/08/09 11:17:19;;;;;;;2.67;1.50;;;30.60;47.60;;;;;;5054831;28;20053;-85
2022/08/09 11:19:57;;;;;;;3.42;1.40;;;30.60;47.20;;;;;;5056528;28;20059;-87
2022/08/09 11:22:45;;;;;;;3.33;1.60;;;30.30;47.70;;;;;;5054421;28;20025;-86
2022/08/09 11:25:15;;;;;;;4.30;1.65;;;30.30;48.70;;;;;;5052767;28;20031;-86
2022/08/09 11:27:45;;;;;;;2.85;1.70;;;30.10;48.00;;;;;;5053612;28;20041;-85
2022/08/09 11:30:13;;;;;;;5.32;1.65;;;29.90;48.20;;;;;;5053235;28;20048;-81
2022/08/09 11:32:39;;;;;;;2.20;1.38;;;29.80;48.60;;;;;;5053412;28;20114;-82
2022/08/09 11:35:24;;;;;;;7.95;1.73;;;29.50;48.60;;;;;;5052221;28;20021;-77
2022/08/09 11:37:52;;;;;;;5.05;1.63;;;29.30;49.50;;;;;;5052752;28;20200;-84
2022/08/09 11:40:30;;;;;;;71.07;49.40;;;29.20;48.80;;;;;;5051234;28;20383;-79
2022/08/09 11:42:59;;;;;;;58.78;38.13;;;29.00;49.20;;;;;;5051230;28;20029;-82
2022/08/09 11:45:37;;;;;;;7.15;3.85;;;28.60;49.50;;;;;;5051540;28;20036;-79
2022/08/09 11:48:16;;;;;;;5.65;1.70;;;28.50;49.90;;;;;;5052558;28;20037;-79
2022/08/09 11:51:04;;;;;;;4.55;2.00;;;28.60;49.70;;;;;;5052819;28;20021;-79
2022/08/09 11:53:34;;;;;;;;;;;28.60;49.50;;;;;;5052972;28;20040;-80
2022/08/09 11:56:28;;;;;;;1.92;1.63;;;28.30;49.60;;;;;;5052048;28;19967;-80
2022/08/09 11:58:56;;;;;;;2.20;1.35;;;28.60;50.10;;;;;;5052139;28;20071;-84
2022/08/09 12:01:36;;;;;;;5.97;1.48;;;28.70;50.00;;;;;;5051848;28;20056;-82
2022/08/09 12:04:12;;;;;;;3.08;1.50;;;28.60;50.00;;;;;;5052538;28;20036;-82
2022/08/09 12:06:39;;;;;;;4.95;1.75;;;28.70;50.10;;;;;;5052280;28;20538;-82
2022/08/09 12:09:08;;;;;;;5.33;1.60;;;28.90;50.10;;;;;;5052416;28;20108;-81
2022/08/09 12:11:37;;;;;;;1.90;1.23;;;29.00;49.80;;;;;;5050889;28;20033;-80
2022/08/09 12:14:05;;;;;;;6.13;1.60;;;29.10;50.20;;;;;;5052190;28;20052;-81
2022/08/09 12:16:36;;;;;;;2.67;1.40;;;29.10;49.30;;;;;;5051961;28;20044;-81
2022/08/09 12:19:04;;;;;;;6.55;1.85;;;29.20;49.40;;;;;;5050473;28;20026;-81
2022/08/09 12:21:32;;;;;;;;;;;29.20;49.70;;;;;;5052001;28;20498;-77
2022/08/09 12:24:01;;;;;;;2.17;1.60;;;29.00;50.30;;;;;;5051254;28;19916;-80
2022/08/09 12:26:38;;;;;;;4.90;2.03;;;29.10;49.00;;;;;;5051242;28;20036;-81
2022/08/09 12:29:04;;;;;;;4.00;1.92;;;29.20;48.90;;;;;;5051635;28;20082;-79
2022/08/09 12:31:29;;;;;;;2.05;1.50;;;28.90;48.90;;;;;;5051751;28;20037;-81
2022/08/09 12:33:55;;;;;;;2.65;1.50;;;28.90;49.30;;;;;;5051543;28;20090;-80
2022/08/09 12:36:31;;;;;;;5.03;1.92;;;28.70;50.10;;;;;;5050826;28;20036;-79
2022/08/09 12:38:58;;;;;;;3.88;1.60;;;28.90;48.80;;;;;;5051121;28;20471;-79
2022/08/09 12:41:29;;;;;;;3.13;1.63;;;28.70;48.80;;;;;;5051276;28;20391;-81
2022/08/09 12:43:56;;;;;;;1.90;1.30;;;28.80;48.90;;;;;;5051697;28;20024;-80
2022/08/09 12:46:24;;;;;;;2.27;1.40;;;28.70;48.80;;;;;;5049846;28;20079;-80
2022/08/09 12:48:54;;;;;;;1.65;1.20;;;28.70;49.00;;;;;;5050981;28;20033;-79
2022/08/09 12:51:26;;;;;;;2.35;1.40;;;28.70;48.70;;;;;;5050718;28;20072;-79
2022/08/09 12:54:01;;;;;;;2.97;1.45;;;28.70;48.50;;;;;;5050292;28;20040;-81
2022/08/09 12:56:27;;;;;;;7.78;2.38;;;28.40;48.70;;;;;;5056903;28;20519;-82
2022/08/09 12:59:13;;;;;;;3.45;1.85;;;28.30;49.10;;;;;;5061877;28;20017;-80